Climatologie pour Saint-Brevin les Pins
Jour • Résumé pour janvier 4, 2017 Système :  Métrique    Anglais   Mixte
« - 1 jour
+ 1 jour »
Jour Semaine Mois Année Personnalisé
  Maximum : Minimum : Moyenne :
Température sous abri : 7.6 °C -2.7 °C 2.3 °C
Point de rosée : 5.1 °C -2.9 °C 1.4 °C
Humidité : 99 % 83 % 94 %
Vitesse du vent : 9.7 km/h 0.0 km/h 1.9 km/h
Rafale : 14.5 km/h - -
Direction :- - SW
Pression : 1031.0 hPa 1028.0 hPa -
Précipitations : 0.0 mm    
Historical Graphs
 
 
Tableau de données pour janvier 4, 2017
Heure Tempé Pt rosée Pression Vent Vitesse Rafale Humidité Taux pluie (/hr) Soleil
00:00 -0.6 °C -1.0 °C 1030.7 hPa ENE 6.4 km/h 12.9 km/h 97 % 0.0 mm 0 W/m2
00:05 -0.6 °C -1.0 °C 1030.7 hPa ENE 4.8 km/h 12.9 km/h 97 % 0.0 mm 0 W/m2
00:10 -0.6 °C -1.0 °C 1030.7 hPa East 4.8 km/h 11.3 km/h 97 % 0.0 mm 0 W/m2
00:15 -0.6 °C -1.0 °C 1030.7 hPa East 8.0 km/h 11.3 km/h 97 % 0.0 mm 0 W/m2
00:20 -0.7 °C -1.1 °C 1030.7 hPa ENE 1.6 km/h 12.9 km/h 97 % 0.0 mm 0 W/m2
00:25 -0.6 °C -1.0 °C 1031.0 hPa ENE 6.4 km/h 14.5 km/h 97 % 0.0 mm 0 W/m2
00:30 -0.7 °C -1.1 °C 1031.0 hPa ENE 3.2 km/h 14.5 km/h 97 % 0.0 mm 0 W/m2
00:35 -0.7 °C -1.1 °C 1031.0 hPa NE 4.8 km/h 12.9 km/h 97 % 0.0 mm 0 W/m2
00:40 -0.7 °C -1.1 °C 1030.7 hPa Calm   8.0 km/h 97 % 0.0 mm 0 W/m2
00:45 -0.7 °C -1.1 °C 1030.7 hPa ENE 4.8 km/h 8.0 km/h 97 % 0.0 mm 0 W/m2
00:50 -0.7 °C -1.1 °C 1030.7 hPa East 4.8 km/h 11.3 km/h 97 % 0.0 mm 0 W/m2
00:55 -0.8 °C -1.2 °C 1030.7 hPa East 8.0 km/h 11.3 km/h 97 % 0.0 mm 0 W/m2
01:00 -0.7 °C -1.1 °C 1030.7 hPa ENE 3.2 km/h 11.3 km/h 97 % 0.0 mm 0 W/m2
01:05 -0.7 °C -1.1 °C 1030.7 hPa ENE 1.6 km/h 11.3 km/h 97 % 0.0 mm 0 W/m2
01:10 -0.7 °C -0.9 °C 1030.7 hPa Calm   4.8 km/h 98 % 0.0 mm 0 W/m2
01:15 -0.7 °C -0.9 °C 1030.7 hPa East 8.0 km/h 8.0 km/h 98 % 0.0 mm 0 W/m2
01:20 -0.7 °C -0.9 °C 1030.7 hPa East 3.2 km/h 8.0 km/h 98 % 0.0 mm 0 W/m2
01:25 -0.7 °C -0.9 °C 1030.4 hPa NE 3.2 km/h 8.0 km/h 98 % 0.0 mm 0 W/m2
01:30 -0.8 °C -1.1 °C 1030.4 hPa NE 3.2 km/h 11.3 km/h 98 % 0.0 mm 0 W/m2
01:35 -0.9 °C -1.2 °C 1030.4 hPa NE 1.6 km/h 11.3 km/h 98 % 0.0 mm 0 W/m2
01:40 -0.9 °C -1.2 °C 1030.0 hPa Calm   11.3 km/h 98 % 0.0 mm 0 W/m2
01:45 -0.8 °C -1.1 °C 1030.0 hPa Calm   6.4 km/h 98 % 0.0 mm 0 W/m2
01:50 -0.8 °C -1.1 °C 1030.0 hPa Calm   6.4 km/h 98 % 0.0 mm 0 W/m2
01:55 -0.8 °C -1.1 °C 1030.0 hPa Calm   6.4 km/h 98 % 0.0 mm 0 W/m2
02:00 -0.8 °C -1.1 °C 1030.0 hPa East 3.2 km/h 6.4 km/h 98 % 0.0 mm 0 W/m2
02:05 -0.8 °C -1.1 °C 1030.0 hPa East 1.6 km/h 4.8 km/h 98 % 0.0 mm 0 W/m2
02:10 -0.9 °C -1.2 °C 1030.0 hPa East 1.6 km/h 4.8 km/h 98 % 0.0 mm 0 W/m2
02:15 -0.9 °C -1.2 °C 1030.0 hPa Calm   4.8 km/h 98 % 0.0 mm 0 W/m2
02:20 -1.0 °C -1.3 °C 1030.0 hPa East 4.8 km/h 4.8 km/h 98 % 0.0 mm 0 W/m2
02:25 -1.1 °C -1.3 °C 1030.0 hPa East 3.2 km/h 4.8 km/h 98 % 0.0 mm 0 W/m2
02:30 -1.1 °C -1.4 °C 1030.0 hPa Calm   4.8 km/h 98 % 0.0 mm 0 W/m2
02:35 -1.1 °C -1.3 °C 1030.0 hPa Calm   4.8 km/h 98 % 0.0 mm 0 W/m2
02:40 -1.1 °C -1.3 °C 1030.0 hPa East 4.8 km/h 4.8 km/h 98 % 0.0 mm 0 W/m2
02:45 -1.1 °C -1.4 °C 1030.0 hPa NE 1.6 km/h 6.4 km/h 98 % 0.0 mm 0 W/m2
02:50 -1.2 °C -1.5 °C 1030.0 hPa NE 3.2 km/h 6.4 km/h 98 % 0.0 mm 0 W/m2
02:55 -1.3 °C -1.6 °C 1030.0 hPa ENE 4.8 km/h 6.4 km/h 98 % 0.0 mm 0 W/m2
03:00 -1.3 °C -1.6 °C 1030.0 hPa NNE 3.2 km/h 8.0 km/h 98 % 0.0 mm 0 W/m2
03:05 -1.4 °C -1.7 °C 1030.0 hPa ENE 8.0 km/h 11.3 km/h 98 % 0.0 mm 0 W/m2
03:10 -1.4 °C -1.7 °C 1030.0 hPa ENE 3.2 km/h 11.3 km/h 98 % 0.0 mm 0 W/m2
03:15 -1.4 °C -1.7 °C 1030.0 hPa Calm   11.3 km/h 98 % 0.0 mm 0 W/m2
03:20 -1.4 °C -1.7 °C 1030.0 hPa NNE 3.2 km/h 12.9 km/h 98 % 0.0 mm 0 W/m2
03:25 -1.4 °C -1.7 °C 1030.0 hPa East 1.6 km/h 12.9 km/h 98 % 0.0 mm 0 W/m2
03:30 -1.3 °C -1.6 °C 1030.0 hPa East 4.8 km/h 9.7 km/h 98 % 0.0 mm 0 W/m2
03:35 -1.4 °C -1.7 °C 1030.0 hPa East 3.2 km/h 9.7 km/h 98 % 0.0 mm 0 W/m2
03:45 -1.4 °C -1.7 °C 1030.0 hPa ENE 3.2 km/h 11.3 km/h 98 % 0.0 mm 0 W/m2
03:50 -1.4 °C -1.7 °C 1030.0 hPa Calm   11.3 km/h 98 % 0.0 mm 0 W/m2
03:55 -1.3 °C -1.6 °C 1030.0 hPa ENE 1.6 km/h 4.8 km/h 98 % 0.0 mm 0 W/m2
04:00 -1.3 °C -1.6 °C 1030.0 hPa ENE 1.6 km/h 4.8 km/h 98 % 0.0 mm 0 W/m2
04:05 -1.3 °C -1.6 °C 1030.0 hPa East 8.0 km/h 9.7 km/h 98 % 0.0 mm 0 W/m2
04:10 -1.4 °C -1.7 °C 1030.0 hPa East 3.2 km/h 9.7 km/h 98 % 0.0 mm 0 W/m2
04:15 -1.4 °C -1.7 °C 1029.7 hPa ESE 1.6 km/h 9.7 km/h 98 % 0.0 mm 0 W/m2
04:20 -1.5 °C -1.8 °C 1029.7 hPa ENE 1.6 km/h 6.4 km/h 98 % 0.0 mm 0 W/m2
04:30 -1.6 °C -1.8 °C 1029.7 hPa East 3.2 km/h 4.8 km/h 98 % 0.0 mm 0 W/m2
04:35 -1.6 °C -1.9 °C 1029.7 hPa East 1.6 km/h 4.8 km/h 98 % 0.0 mm 0 W/m2
04:40 -1.7 °C -1.9 °C 1029.7 hPa Calm   4.8 km/h 98 % 0.0 mm 0 W/m2
04:45 -1.7 °C -2.0 °C 1029.7 hPa Calm   8.0 km/h 98 % 0.0 mm 0 W/m2
04:50 -1.8 °C -2.1 °C 1030.0 hPa East 3.2 km/h 8.0 km/h 98 % 0.0 mm 0 W/m2
04:55 -1.9 °C -2.2 °C 1029.7 hPa East 1.6 km/h 4.8 km/h 98 % 0.0 mm 0 W/m2
05:00 -1.9 °C -2.2 °C 1029.7 hPa Calm   4.8 km/h 98 % 0.0 mm 0 W/m2
05:05 -1.9 °C -2.2 °C 1030.0 hPa East 3.2 km/h 4.8 km/h 98 % 0.0 mm 0 W/m2
05:10 -1.9 °C -2.2 °C 1030.0 hPa ENE 1.6 km/h 4.8 km/h 98 % 0.0 mm 0 W/m2
05:15 -2.0 °C -2.3 °C 1029.7 hPa ENE 1.6 km/h 6.4 km/h 98 % 0.0 mm 0 W/m2
05:20 -1.9 °C -2.2 °C 1029.7 hPa Calm   6.4 km/h 98 % 0.0 mm 0 W/m2
05:25 -2.1 °C -2.3 °C 1029.7 hPa Calm   4.8 km/h 98 % 0.0 mm 0 W/m2
05:30 -1.9 °C -2.2 °C 1029.7 hPa Calm   3.2 km/h 98 % 0.0 mm 0 W/m2
05:35 -1.9 °C -2.2 °C 1029.7 hPa NNE 1.6 km/h 3.2 km/h 98 % 0.0 mm 0 W/m2
05:40 -2.1 °C -2.4 °C 1029.7 hPa Calm   4.8 km/h 98 % 0.0 mm 0 W/m2
05:45 -2.2 °C -2.5 °C 1029.7 hPa Calm   4.8 km/h 98 % 0.0 mm 0 W/m2
05:50 -2.2 °C -2.4 °C 1029.7 hPa Calm   4.8 km/h 98 % 0.0 mm 0 W/m2
05:55 -2.2 °C -2.5 °C 1029.7 hPa Calm   4.8 km/h 98 % 0.0 mm 0 W/m2
06:00 -2.2 °C -2.5 °C 1029.7 hPa Calm   3.2 km/h 98 % 0.0 mm 0 W/m2
06:05 -2.3 °C -2.6 °C 1029.3 hPa Calm   1.6 km/h 98 % 0.0 mm 0 W/m2
06:10 -2.3 °C -2.6 °C 1029.3 hPa Calm   1.6 km/h 98 % 0.0 mm 0 W/m2
06:15 -2.4 °C -2.7 °C 1029.0 hPa Calm   1.6 km/h 98 % 0.0 mm 0 W/m2
06:25 -2.6 °C -2.8 °C 1029.0 hPa Calm     98 % 0.0 mm 0 W/m2
06:30 -2.6 °C -2.8 °C 1029.0 hPa Calm   1.6 km/h 98 % 0.0 mm 0 W/m2
06:35 -2.6 °C -2.8 °C 1029.0 hPa ESE 3.2 km/h 4.8 km/h 98 % 0.0 mm 0 W/m2
06:40 -2.7 °C -2.9 °C 1029.0 hPa South 3.2 km/h 6.4 km/h 98 % 0.0 mm 0 W/m2
06:45 -2.7 °C -2.9 °C 1029.0 hPa South 3.2 km/h 6.4 km/h 98 % 0.0 mm 0 W/m2
06:50 -2.7 °C -2.9 °C 1029.0 hPa Calm   4.8 km/h 98 % 0.0 mm 0 W/m2
06:55 -2.7 °C -2.9 °C 1029.0 hPa East 4.8 km/h 4.8 km/h 98 % 0.0 mm 0 W/m2
07:00 -2.6 °C -2.9 °C 1029.3 hPa NE 1.6 km/h 6.4 km/h 98 % 0.0 mm 0 W/m2
07:05 -2.6 °C -2.8 °C 1029.3 hPa NE 4.8 km/h 6.4 km/h 98 % 0.0 mm 0 W/m2
07:10 -2.5 °C -2.8 °C 1029.0 hPa NE 1.6 km/h 4.8 km/h 98 % 0.0 mm 0 W/m2
07:15 -2.4 °C -2.7 °C 1029.3 hPa Calm   4.8 km/h 98 % 0.0 mm 0 W/m2
07:20 -2.4 °C -2.7 °C 1029.0 hPa Calm   3.2 km/h 98 % 0.0 mm 0 W/m2
07:25 -2.3 °C -2.6 °C 1029.0 hPa Calm     98 % 0.0 mm 0 W/m2
07:30 -2.2 °C -2.5 °C 1029.0 hPa Calm     98 % 0.0 mm 0 W/m2
07:35 -2.1 °C -2.4 °C 1029.0 hPa Calm   1.6 km/h 98 % 0.0 mm 0 W/m2
07:40 -2.0 °C -2.3 °C 1029.0 hPa Calm   1.6 km/h 98 % 0.0 mm 0 W/m2
07:45 -2.0 °C -2.3 °C 1029.0 hPa Calm   1.6 km/h 98 % 0.0 mm 0 W/m2
07:50 -2.0 °C -2.3 °C 1029.3 hPa NE 1.6 km/h 4.8 km/h 98 % 0.0 mm 0 W/m2
07:55 -2.0 °C -2.3 °C 1029.3 hPa Calm   4.8 km/h 98 % 0.0 mm 0 W/m2
08:00 -2.0 °C -2.3 °C 1029.3 hPa Calm   3.2 km/h 98 % 0.0 mm 0 W/m2
08:05 -2.0 °C -2.3 °C 1029.3 hPa Calm   3.2 km/h 98 % 0.0 mm 0 W/m2
08:10 -2.1 °C -2.3 °C 1029.3 hPa Calm     98 % 0.0 mm 0 W/m2
08:15 -2.1 °C -2.3 °C 1029.3 hPa Calm     98 % 0.0 mm 0 W/m2
08:20 -2.2 °C -2.4 °C 1029.3 hPa Calm     98 % 0.0 mm 0 W/m2
08:25 -2.2 °C -2.5 °C 1029.3 hPa Calm     98 % 0.0 mm 0 W/m2
08:30 -2.3 °C -2.6 °C 1029.3 hPa Calm   1.6 km/h 98 % 0.0 mm 0 W/m2
08:35 -2.3 °C -2.6 °C 1029.3 hPa NE 1.6 km/h 1.6 km/h 98 % 0.0 mm 0 W/m2
08:40 -2.3 °C -2.6 °C 1029.3 hPa Calm   3.2 km/h 98 % 0.0 mm 0 W/m2
08:45 -2.2 °C -2.5 °C 1029.3 hPa Calm   3.2 km/h 98 % 0.0 mm 0 W/m2
08:50 -2.2 °C -2.5 °C 1029.3 hPa Calm   1.6 km/h 98 % 0.0 mm 0 W/m2
08:55 -2.2 °C -2.4 °C 1029.3 hPa Calm   1.6 km/h 98 % 0.0 mm 0 W/m2
09:00 -2.2 °C -2.4 °C 1029.3 hPa Calm     98 % 0.0 mm 5 W/m2
09:05 -2.2 °C -2.4 °C 1029.3 hPa Calm     98 % 0.0 mm 7 W/m2
09:10 -2.2 °C -2.4 °C 1029.3 hPa Calm   1.6 km/h 98 % 0.0 mm 9 W/m2
09:15 -2.2 °C -2.4 °C 1029.3 hPa Calm   1.6 km/h 98 % 0.0 mm 11 W/m2
09:20 -2.2 °C -2.5 °C 1029.3 hPa Calm   1.6 km/h 98 % 0.0 mm 16 W/m2
09:25 -2.2 °C -2.5 °C 1029.3 hPa Calm   1.6 km/h 98 % 0.0 mm 18 W/m2
09:30 -2.3 °C -2.6 °C 1029.3 hPa Calm     98 % 0.0 mm 23 W/m2
09:35 -2.3 °C -2.6 °C 1029.3 hPa West 1.6 km/h 4.8 km/h 98 % 0.0 mm 30 W/m2
09:40 -2.5 °C -2.8 °C 1029.3 hPa WSW 1.6 km/h 4.8 km/h 98 % 0.0 mm 35 W/m2
09:45 -2.6 °C -2.8 °C 1029.3 hPa Calm   4.8 km/h 98 % 0.0 mm 35 W/m2
09:50 -2.6 °C -2.8 °C 1029.3 hPa Calm   3.2 km/h 98 % 0.0 mm 42 W/m2
09:55 -2.6 °C -2.8 °C 1029.7 hPa Calm   1.6 km/h 98 % 0.0 mm 47 W/m2
10:00 -2.5 °C -2.8 °C 1029.3 hPa Calm   1.6 km/h 98 % 0.0 mm 51 W/m2
10:05 -2.4 °C -2.7 °C 1029.3 hPa Calm   1.6 km/h 98 % 0.0 mm 54 W/m2
10:10 -2.3 °C -2.6 °C 1029.7 hPa Calm   1.6 km/h 98 % 0.0 mm 79 W/m2
10:15 -2.2 °C -2.4 °C 1029.7 hPa Calm   1.6 km/h 98 % 0.0 mm 39 W/m2
10:20 -2.1 °C -2.3 °C 1029.3 hPa WSW 1.6 km/h 3.2 km/h 98 % 0.0 mm 40 W/m2
10:25 -1.9 °C -2.2 °C 1029.3 hPa WSW 3.2 km/h 3.2 km/h 98 % 0.0 mm 44 W/m2
10:30 -1.8 °C -2.1 °C 1029.7 hPa WSW 3.2 km/h 3.2 km/h 98 % 0.0 mm 127 W/m2
10:35 -1.6 °C -1.9 °C 1029.3 hPa WSW 1.6 km/h 3.2 km/h 98 % 0.0 mm 148 W/m2
10:45 -1.4 °C -1.7 °C 1029.7 hPa Calm   1.6 km/h 98 % 0.0 mm 158 W/m2
10:50 -1.3 °C -1.6 °C 1029.7 hPa Calm   1.6 km/h 98 % 0.0 mm 158 W/m2
10:55 -1.1 °C -1.4 °C 1029.7 hPa Calm   1.6 km/h 98 % 0.0 mm 172 W/m2
11:00 -0.8 °C -1.1 °C 1029.7 hPa Calm     98 % 0.0 mm 183 W/m2
11:05 -0.7 °C -0.9 °C 1029.7 hPa Calm     98 % 0.0 mm 192 W/m2
11:10 -0.4 °C -0.7 °C 1029.7 hPa Calm     98 % 0.0 mm 200 W/m2
11:15 -0.1 °C -0.3 °C 1029.7 hPa Calm     98 % 0.0 mm 207 W/m2
11:20 0.4 °C 0.1 °C 1029.7 hPa Calm   1.6 km/h 98 % 0.0 mm 214 W/m2
11:25 0.7 °C 0.6 °C 1029.7 hPa WSW 1.6 km/h 3.2 km/h 99 % 0.0 mm 223 W/m2
11:30 0.9 °C 0.8 °C 1029.7 hPa Calm   3.2 km/h 99 % 0.0 mm 232 W/m2
11:35 1.2 °C 1.0 °C 1029.7 hPa Calm   3.2 km/h 99 % 0.0 mm 237 W/m2
11:40 1.4 °C 1.3 °C 1030.0 hPa WSW 1.6 km/h 3.2 km/h 99 % 0.0 mm 243 W/m2
11:50 2.2 °C 2.0 °C 1029.7 hPa Calm   1.6 km/h 99 % 0.0 mm 257 W/m2
11:55 2.2 °C 2.0 °C 1029.7 hPa WSW 1.6 km/h 1.6 km/h 99 % 0.0 mm 269 W/m2
12:00 2.4 °C 2.2 °C 1029.7 hPa Calm   1.6 km/h 99 % 0.0 mm 243 W/m2
12:05 2.5 °C 2.4 °C 1029.7 hPa Calm   1.6 km/h 99 % 0.0 mm 179 W/m2
12:10 2.7 °C 2.4 °C 1029.7 hPa Calm   1.6 km/h 98 % 0.0 mm 193 W/m2
12:15 3.0 °C 2.9 °C 1029.7 hPa Calm   1.6 km/h 99 % 0.0 mm 176 W/m2
12:20 3.2 °C 3.1 °C 1029.7 hPa WSW 3.2 km/h 4.8 km/h 99 % 0.0 mm 190 W/m2
12:25 3.5 °C 3.4 °C 1029.7 hPa WSW 1.6 km/h 4.8 km/h 99 % 0.0 mm 167 W/m2
12:30 3.8 °C 3.7 °C 1029.7 hPa Calm   6.4 km/h 99 % 0.0 mm 211 W/m2
12:35 4.2 °C 3.9 °C 1029.3 hPa WSW 1.6 km/h 6.4 km/h 98 % 0.0 mm 158 W/m2
12:40 4.4 °C 4.1 °C 1029.3 hPa WSW 4.8 km/h 4.8 km/h 98 % 0.0 mm 211 W/m2
12:50 4.8 °C 4.5 °C 1029.3 hPa Calm   4.8 km/h 98 % 0.0 mm 156 W/m2
12:55 4.8 °C 4.5 °C 1029.3 hPa WSW 1.6 km/h 4.8 km/h 98 % 0.0 mm 158 W/m2
13:00 4.8 °C 4.4 °C 1029.3 hPa Calm   4.8 km/h 97 % 0.0 mm 153 W/m2
13:05 5.1 °C 4.6 °C 1029.3 hPa WSW 4.8 km/h 6.4 km/h 97 % 0.0 mm 162 W/m2
13:10 5.1 °C 4.5 °C 1029.3 hPa WSW 1.6 km/h 6.4 km/h 96 % 0.0 mm 167 W/m2
13:15 5.3 °C 4.7 °C 1029.3 hPa Calm   4.8 km/h 96 % 0.0 mm 163 W/m2
13:20 5.4 °C 4.7 °C 1029.0 hPa Calm   4.8 km/h 95 % 0.0 mm 185 W/m2
13:25 5.6 °C 4.7 °C 1029.0 hPa Calm   4.8 km/h 94 % 0.0 mm 169 W/m2
13:30 5.6 °C 4.7 °C 1029.0 hPa Calm   4.8 km/h 94 % 0.0 mm 162 W/m2
13:35 5.7 °C 4.7 °C 1029.0 hPa WSW 4.8 km/h 6.4 km/h 93 % 0.0 mm 183 W/m2
13:40 5.7 °C 4.5 °C 1029.0 hPa WSW 1.6 km/h 6.4 km/h 92 % 0.0 mm 185 W/m2
13:45 6.0 °C 4.8 °C 1028.7 hPa Calm   4.8 km/h 92 % 0.0 mm 195 W/m2
13:50 6.2 °C 4.8 °C 1028.7 hPa Calm   3.2 km/h 91 % 0.0 mm 185 W/m2
13:55 6.4 °C 5.1 °C 1028.7 hPa Calm   1.6 km/h 91 % 0.0 mm 176 W/m2
14:00 6.6 °C 5.0 °C 1028.7 hPa Calm   4.8 km/h 90 % 0.0 mm 193 W/m2
14:05 6.6 °C 4.9 °C 1028.3 hPa Calm   6.4 km/h 89 % 0.0 mm 213 W/m2
14:10 6.7 °C 4.7 °C 1028.7 hPa Calm   6.4 km/h 87 % 0.0 mm 179 W/m2
14:15 6.8 °C 4.8 °C 1028.7 hPa NW 1.6 km/h 6.4 km/h 87 % 0.0 mm 202 W/m2
14:20 6.9 °C 4.8 °C 1028.3 hPa WNW 6.4 km/h 6.4 km/h 86 % 0.0 mm 185 W/m2
14:25 7.0 °C 4.8 °C 1028.3 hPa WNW 1.6 km/h 6.4 km/h 86 % 0.0 mm 174 W/m2
14:30 7.1 °C 4.7 °C 1028.3 hPa NW 6.4 km/h 8.0 km/h 85 % 0.0 mm 144 W/m2
14:40 6.9 °C 4.5 °C 1028.3 hPa Calm   6.4 km/h 85 % 0.0 mm 262 W/m2
14:45 7.3 °C 5.1 °C 1028.0 hPa WNW 3.2 km/h 6.4 km/h 86 % 0.0 mm 185 W/m2
14:50 7.3 °C 4.8 °C 1028.0 hPa WSW 4.8 km/h 9.7 km/h 84 % 0.0 mm 176 W/m2
14:55 7.3 °C 4.8 °C 1028.0 hPa WSW 1.6 km/h 9.7 km/h 84 % 0.0 mm 153 W/m2
15:00 7.3 °C 4.9 °C 1028.0 hPa WNW 4.8 km/h 8.0 km/h 85 % 0.0 mm 156 W/m2
15:05 7.3 °C 5.0 °C 1028.0 hPa West 4.8 km/h 8.0 km/h 85 % 0.0 mm 134 W/m2
15:10 7.4 °C 4.9 °C 1028.0 hPa WNW 4.8 km/h 9.7 km/h 84 % 0.0 mm 105 W/m2
15:15 7.4 °C 5.0 °C 1028.0 hPa West 4.8 km/h 9.7 km/h 85 % 0.0 mm 97 W/m2
15:20 7.4 °C 4.7 °C 1028.0 hPa WNW 1.6 km/h 9.7 km/h 83 % 0.0 mm 104 W/m2
15:25 7.5 °C 4.8 °C 1028.0 hPa WNW 6.4 km/h 9.7 km/h 83 % 0.0 mm 88 W/m2
15:30 7.6 °C 5.0 °C 1028.0 hPa NW 3.2 km/h 8.0 km/h 84 % 0.0 mm 81 W/m2
15:35 7.6 °C 4.9 °C 1028.0 hPa WNW 4.8 km/h 8.0 km/h 83 % 0.0 mm 76 W/m2
15:40 7.6 °C 5.1 °C 1028.0 hPa WNW 1.6 km/h 8.0 km/h 84 % 0.0 mm 74 W/m2
15:45 7.6 °C 5.0 °C 1028.0 hPa WNW 4.8 km/h 4.8 km/h 84 % 0.0 mm 69 W/m2
15:50 7.6 °C 5.0 °C 1028.0 hPa WNW 3.2 km/h 6.4 km/h 84 % 0.0 mm 67 W/m2
15:55 7.6 °C 5.0 °C 1028.0 hPa WNW 4.8 km/h 8.0 km/h 84 % 0.0 mm 65 W/m2
16:00 7.5 °C 5.1 °C 1028.0 hPa WNW 1.6 km/h 8.0 km/h 85 % 0.0 mm 62 W/m2
16:05 7.4 °C 5.1 °C 1028.3 hPa NW 4.8 km/h 6.4 km/h 85 % 0.0 mm 51 W/m2
16:10 7.4 °C 5.0 °C 1028.0 hPa NW 3.2 km/h 6.4 km/h 85 % 0.0 mm 47 W/m2
16:15 7.3 °C 4.8 °C 1028.0 hPa NW 1.6 km/h 6.4 km/h 84 % 0.0 mm 46 W/m2
16:20 7.3 °C 5.1 °C 1028.0 hPa NW 3.2 km/h 6.4 km/h 86 % 0.0 mm 39 W/m2
16:25 7.3 °C 5.1 °C 1028.3 hPa NW 1.6 km/h 6.4 km/h 86 % 0.0 mm 33 W/m2
16:30 7.2 °C 5.0 °C 1028.0 hPa WNW 3.2 km/h 8.0 km/h 86 % 0.0 mm 33 W/m2
16:35 7.1 °C 4.9 °C 1028.0 hPa WNW 1.6 km/h 8.0 km/h 86 % 0.0 mm 30 W/m2
16:40 7.1 °C 5.0 °C 1028.0 hPa Calm   8.0 km/h 87 % 0.0 mm 26 W/m2
16:45 7.0 °C 5.0 °C 1028.0 hPa Calm   6.4 km/h 87 % 0.0 mm 23 W/m2
16:50 6.9 °C 5.0 °C 1028.0 hPa WNW 1.6 km/h 6.4 km/h 88 % 0.0 mm 18 W/m2
16:55 6.8 °C 5.0 °C 1028.0 hPa Calm   8.0 km/h 88 % 0.0 mm 14 W/m2
17:00 6.8 °C 4.8 °C 1028.0 hPa Calm   8.0 km/h 87 % 0.0 mm 14 W/m2
17:05 6.7 °C 4.9 °C 1028.3 hPa NW 3.2 km/h 6.4 km/h 88 % 0.0 mm 11 W/m2
17:10 6.7 °C 4.8 °C 1028.3 hPa Calm   6.4 km/h 88 % 0.0 mm 7 W/m2
17:15 6.6 °C 4.8 °C 1028.3 hPa Calm   6.4 km/h 88 % 0.0 mm 5 W/m2
17:20 6.5 °C 4.8 °C 1028.3 hPa NW 1.6 km/h 4.8 km/h 89 % 0.0 mm 0 W/m2
17:25 6.4 °C 4.7 °C 1028.7 hPa NW 1.6 km/h 6.4 km/h 89 % 0.0 mm 0 W/m2
17:30 6.3 °C 4.8 °C 1028.7 hPa Calm   6.4 km/h 90 % 0.0 mm 0 W/m2
17:35 6.3 °C 4.8 °C 1028.7 hPa North 1.6 km/h 8.0 km/h 90 % 0.0 mm 0 W/m2
17:40 6.3 °C 4.8 °C 1028.7 hPa North 1.6 km/h 8.0 km/h 90 % 0.0 mm 0 W/m2
17:45 6.2 °C 4.5 °C 1028.7 hPa NNW 4.8 km/h 8.0 km/h 89 % 0.0 mm 0 W/m2
17:50 6.2 °C 4.6 °C 1028.7 hPa NW 3.2 km/h 8.0 km/h 90 % 0.0 mm 0 W/m2
17:55 6.2 °C 4.6 °C 1028.7 hPa NNW 4.8 km/h 9.7 km/h 90 % 0.0 mm 0 W/m2
18:00 6.3 °C 4.6 °C 1028.7 hPa Calm   9.7 km/h 89 % 0.0 mm 0 W/m2
18:05 6.2 °C 4.5 °C 1028.7 hPa NNW 3.2 km/h 6.4 km/h 89 % 0.0 mm 0 W/m2
18:10 6.1 °C 4.6 °C 1028.7 hPa NW 6.4 km/h 8.0 km/h 90 % 0.0 mm 0 W/m2
18:15 6.1 °C 4.5 °C 1028.7 hPa NW 3.2 km/h 8.0 km/h 90 % 0.0 mm 0 W/m2
18:20 6.1 °C 4.5 °C 1028.7 hPa Calm   8.0 km/h 90 % 0.0 mm 0 W/m2
18:25 6.1 °C 4.6 °C 1028.7 hPa NW 1.6 km/h 6.4 km/h 90 % 0.0 mm 0 W/m2
18:30 6.1 °C 4.6 °C 1028.7 hPa NNW 4.8 km/h 9.7 km/h 90 % 0.0 mm 0 W/m2
18:35 6.2 °C 4.5 °C 1028.7 hPa WNW 1.6 km/h 9.7 km/h 89 % 0.0 mm 0 W/m2
18:40 6.3 °C 4.6 °C 1028.7 hPa WNW 4.8 km/h 9.7 km/h 89 % 0.0 mm 0 W/m2
18:45 6.3 °C 4.5 °C 1028.7 hPa NW 4.8 km/h 9.7 km/h 88 % 0.0 mm 0 W/m2
18:50 6.3 °C 4.5 °C 1028.7 hPa Calm   8.0 km/h 88 % 0.0 mm 0 W/m2
18:55 6.3 °C 4.6 °C 1028.7 hPa WNW 3.2 km/h 8.0 km/h 89 % 0.0 mm 0 W/m2
19:00 6.2 °C 4.5 °C 1028.7 hPa NW 1.6 km/h 6.4 km/h 89 % 0.0 mm 0 W/m2
19:10 6.2 °C 4.5 °C 1028.7 hPa NW 6.4 km/h 8.0 km/h 89 % 0.0 mm 0 W/m2
19:15 6.2 °C 4.5 °C 1028.7 hPa NW 1.6 km/h 8.0 km/h 89 % 0.0 mm 0 W/m2
19:20 6.2 °C 4.5 °C 1028.7 hPa NW 3.2 km/h 6.4 km/h 89 % 0.0 mm 0 W/m2
19:25 6.2 °C 4.5 °C 1028.7 hPa NW 4.8 km/h 8.0 km/h 89 % 0.0 mm 0 W/m2
19:30 6.2 °C 4.5 °C 1028.7 hPa NW 6.4 km/h 8.0 km/h 89 % 0.0 mm 0 W/m2
19:35 6.3 °C 4.6 °C 1028.7 hPa Calm   8.0 km/h 89 % 0.0 mm 0 W/m2
19:40 6.3 °C 4.5 °C 1028.7 hPa NNW 3.2 km/h 8.0 km/h 88 % 0.0 mm 0 W/m2
19:45 6.2 °C 4.5 °C 1029.0 hPa NNW 1.6 km/h 8.0 km/h 89 % 0.0 mm 0 W/m2
19:50 6.2 °C 4.5 °C 1029.0 hPa WNW 3.2 km/h 6.4 km/h 89 % 0.0 mm 0 W/m2
19:55 6.3 °C 4.6 °C 1029.0 hPa Calm   6.4 km/h 89 % 0.0 mm 0 W/m2
20:00 6.2 °C 4.5 °C 1029.0 hPa NW 3.2 km/h 8.0 km/h 89 % 0.0 mm 0 W/m2
20:05 6.2 °C 4.5 °C 1029.0 hPa NW 3.2 km/h 8.0 km/h 89 % 0.0 mm 0 W/m2
20:10 6.2 °C 4.5 °C 1029.0 hPa WNW 6.4 km/h 9.7 km/h 89 % 0.0 mm 0 W/m2
20:15 6.4 °C 4.5 °C 1029.0 hPa WNW 3.2 km/h 9.7 km/h 88 % 0.0 mm 0 W/m2
20:20 6.4 °C 4.5 °C 1029.0 hPa WNW 1.6 km/h 8.0 km/h 88 % 0.0 mm 0 W/m2
20:25 6.3 °C 4.6 °C 1029.0 hPa NNW 3.2 km/h 8.0 km/h 89 % 0.0 mm 0 W/m2
20:30 6.3 °C 4.6 °C 1029.0 hPa Calm   8.0 km/h 89 % 0.0 mm 0 W/m2
20:35 6.3 °C 4.6 °C 1029.0 hPa WNW 3.2 km/h 8.0 km/h 89 % 0.0 mm 0 W/m2
20:40 6.3 °C 4.7 °C 1029.0 hPa Calm   8.0 km/h 89 % 0.0 mm 0 W/m2
20:45 6.3 °C 4.7 °C 1029.0 hPa WNW 4.8 km/h 8.0 km/h 89 % 0.0 mm 0 W/m2
20:50 6.3 °C 4.6 °C 1029.0 hPa NW 3.2 km/h 8.0 km/h 89 % 0.0 mm 0 W/m2
20:55 6.3 °C 4.6 °C 1029.0 hPa NW 6.4 km/h 8.0 km/h 89 % 0.0 mm 0 W/m2
21:00 6.3 °C 4.7 °C 1029.0 hPa WNW 4.8 km/h 8.0 km/h 89 % 0.0 mm 0 W/m2
21:05 6.3 °C 4.5 °C 1029.0 hPa NW 3.2 km/h 6.4 km/h 88 % 0.0 mm 0 W/m2
21:10 6.3 °C 4.7 °C 1029.0 hPa West 4.8 km/h 6.4 km/h 89 % 0.0 mm 0 W/m2
21:15 6.3 °C 4.7 °C 1029.0 hPa WNW 3.2 km/h 6.4 km/h 89 % 0.0 mm 0 W/m2
21:25 6.2 °C 4.5 °C 1029.0 hPa Calm   9.7 km/h 89 % 0.0 mm 0 W/m2
21:30 6.2 °C 4.6 °C 1029.0 hPa NW 1.6 km/h 4.8 km/h 90 % 0.0 mm 0 W/m2
21:35 6.1 °C 4.6 °C 1029.0 hPa Calm   4.8 km/h 90 % 0.0 mm 0 W/m2
21:40 6.1 °C 4.6 °C 1029.0 hPa Calm   4.8 km/h 90 % 0.0 mm 0 W/m2
21:45 6.2 °C 4.6 °C 1029.0 hPa NW 3.2 km/h 4.8 km/h 90 % 0.0 mm 0 W/m2
21:50 6.1 °C 4.5 °C 1029.0 hPa NNW 3.2 km/h 6.4 km/h 90 % 0.0 mm 0 W/m2
22:00 6.0 °C 4.6 °C 1029.0 hPa NNW 9.7 km/h 9.7 km/h 91 % 0.0 mm 0 W/m2
22:05 6.1 °C 4.6 °C 1029.3 hPa Calm   9.7 km/h 90 % 0.0 mm 0 W/m2
22:10 6.2 °C 4.5 °C 1029.3 hPa NW 1.6 km/h 9.7 km/h 89 % 0.0 mm 0 W/m2
22:15 6.2 °C 4.5 °C 1029.3 hPa Calm   11.3 km/h 89 % 0.0 mm 0 W/m2
22:20 6.2 °C 4.5 °C 1029.3 hPa North 3.2 km/h 11.3 km/h 89 % 0.0 mm 0 W/m2
22:25 6.2 °C 4.5 °C 1029.3 hPa North 1.6 km/h 8.0 km/h 89 % 0.0 mm 0 W/m2
22:30 6.1 °C 4.4 °C 1029.3 hPa North 3.2 km/h 8.0 km/h 89 % 0.0 mm 0 W/m2
22:35 6.1 °C 4.4 °C 1029.3 hPa North 1.6 km/h 8.0 km/h 89 % 0.0 mm 0 W/m2
22:40 6.0 °C 4.3 °C 1029.3 hPa Calm   6.4 km/h 89 % 0.0 mm 0 W/m2
22:45 6.1 °C 4.2 °C 1029.3 hPa North 1.6 km/h 6.4 km/h 88 % 0.0 mm 0 W/m2
22:50 5.9 °C 4.3 °C 1029.7 hPa Calm   4.8 km/h 89 % 0.0 mm 0 W/m2
22:55 6.1 °C 4.4 °C 1029.7 hPa NNW 3.2 km/h 4.8 km/h 89 % 0.0 mm 0 W/m2
23:05 6.1 °C 4.2 °C 1029.7 hPa NW 1.6 km/h 4.8 km/h 88 % 0.0 mm 0 W/m2
23:10 6.0 °C 4.3 °C 1029.7 hPa NW 3.2 km/h 4.8 km/h 89 % 0.0 mm 0 W/m2
23:15 5.9 °C 4.2 °C 1029.7 hPa Calm   4.8 km/h 89 % 0.0 mm 0 W/m2
23:20 5.8 °C 4.3 °C 1029.7 hPa Calm   4.8 km/h 90 % 0.0 mm 0 W/m2
23:25 5.7 °C 4.2 °C 1029.7 hPa Calm   1.6 km/h 90 % 0.0 mm 0 W/m2
23:30 5.7 °C 4.3 °C 1029.7 hPa Calm     91 % 0.0 mm 0 W/m2
23:35 5.6 °C 4.3 °C 1029.7 hPa Calm     91 % 0.0 mm 0 W/m2
23:40 5.6 °C 4.2 °C 1029.7 hPa Calm     91 % 0.0 mm 0 W/m2
23:45 5.6 °C 4.4 °C 1029.7 hPa Calm     92 % 0.0 mm 0 W/m2
Avec l'autorisation de Weather Underground - 1.75 mb